Time;durP1;ratioP1;P1;durP2;ratioP2;P2;SDS_P1;SDS_P2;PMS_P1;PMS_P2;Temp;Humidity;BMP_temperature;BMP_pressure;BME280_temperature;BME280_humidity;BME280_pressure;Samples;Min_cycle;Max_cycle;Signal;HPM_P1;HPM_P2
2022/09/25 00:00:20;;;;;;;1.20;0.90;;;9.40;99.90;;;;;;5055287;28;20044;-76
2022/09/25 00:02:45;;;;;;;1.02;0.70;;;9.40;99.90;;;;;;5038618;28;20041;-75
2022/09/25 00:05:11;;;;;;;3.15;1.10;;;9.40;99.90;;;;;;5040285;28;20048;-75
2022/09/25 00:07:37;;;;;;;3.13;0.93;;;9.40;99.90;;;;;;5042338;28;20110;-75
2022/09/25 00:10:03;;;;;;;6.72;1.20;;;9.40;99.90;;;;;;5025749;28;20090;-75
2022/09/25 00:12:29;;;;;;;1.75;0.95;;;9.40;99.90;;;;;;5042368;28;20502;-75
2022/09/25 00:14:55;;;;;;;2.05;1.08;;;;;;;;;;5042263;28;20036;-75
2022/09/25 00:17:21;;;;;;;2.75;1.00;;;9.40;99.90;;;;;;5025997;28;20036;-75
2022/09/25 00:19:50;;;;;;;3.90;1.05;;;9.40;99.90;;;;;;5042103;28;20043;-75
2022/09/25 00:22:21;;;;;;;3.90;1.05;;;9.30;99.90;;;;;;5041997;28;20067;-76
2022/09/25 00:24:47;;;;;;;1.45;1.20;;;9.30;99.90;;;;;;5058469;28;20084;-75
2022/09/25 00:27:13;;;;;;;3.05;0.98;;;9.30;99.90;;;;;;5009257;28;20079;-75
2022/09/25 00:29:40;;;;;;;2.45;0.98;;;9.30;99.90;;;;;;5025596;28;20071;-75
2022/09/25 00:32:07;;;;;;;1.95;1.02;;;9.30;99.90;;;;;;5058479;28;20098;-76
2022/09/25 00:34:34;;;;;;;2.25;0.80;;;9.40;99.90;;;;;;5042095;28;20476;-75
2022/09/25 00:36:59;;;;;;;0.90;0.70;;;9.20;99.90;;;;;;5041805;28;20048;-75
2022/09/25 00:39:25;;;;;;;1.90;1.08;;;9.20;99.90;;;;;;5041786;28;20123;-76
2022/09/25 00:41:52;;;;;;;2.25;0.80;;;9.20;99.90;;;;;;5058319;28;20051;-76
2022/09/25 00:44:51;;;;;;;1.75;1.20;;;9.20;99.90;;;;;;5058492;28;20047;-75
2022/09/25 00:47:22;;;;;;;1.73;1.00;;;9.20;99.90;;;;;;5041856;28;20139;-75
2022/09/25 00:49:49;;;;;;;4.50;1.15;;;9.20;99.90;;;;;;5058181;28;20098;-75
2022/09/25 00:52:15;;;;;;;3.10;0.77;;;9.10;99.90;;;;;;5041562;28;20127;-75
2022/09/25 00:54:52;;;;;;;4.65;1.00;;;9.40;99.90;;;;;;5041774;28;20495;-75
2022/09/25 00:57:21;;;;;;;4.03;0.90;;;9.10;99.90;;;;;;5058147;28;20037;-76
2022/09/25 00:59:54;;;;;;;2.88;1.20;;;9.10;99.90;;;;;;5058039;28;20044;-75
2022/09/25 01:02:25;;;;;;;1.45;0.90;;;9.10;99.90;;;;;;5058190;28;20097;-75
2022/09/25 01:04:54;;;;;;;1.92;1.00;;;9.30;99.90;;;;;;5058225;28;20392;-75
2022/09/25 01:07:19;;;;;;;2.35;1.15;;;9.00;99.90;;;;;;5058098;28;20056;-76
2022/09/25 01:09:45;;;;;;;1.30;0.80;;;8.90;99.90;;;;;;5041447;28;20044;-76
2022/09/25 01:12:11;;;;;;;2.65;1.10;;;9.40;99.90;;;;;;5041345;28;20040;-75
2022/09/25 01:14:39;;;;;;;5.63;1.10;;;9.00;99.90;;;;;;5057845;28;20123;-76
2022/09/25 01:17:21;;;;;;;2.00;1.00;;;9.30;99.90;;;;;;5057214;28;20094;-75
2022/09/25 01:20:11;;;;;;;3.75;1.15;;;9.00;99.90;;;;;;5057638;28;20040;-75
2022/09/25 01:23:02;;;;;;;3.47;1.08;;;9.00;99.90;;;;;;5040972;28;20190;-75
2022/09/25 01:25:35;;;;;;;3.22;1.05;;;9.00;99.90;;;;;;5021094;28;20076;-75
2022/09/25 01:28:15;;;;;;;3.75;1.40;;;9.20;99.90;;;;;;5037500;28;20037;-76
2022/09/25 01:30:44;;;;;;;1.67;1.17;;;9.00;99.90;;;;;;5021139;28;20045;-75
2022/09/25 01:33:17;;;;;;;3.55;0.90;;;9.00;99.90;;;;;;5037353;28;20048;-75
2022/09/25 01:36:13;;;;;;;4.22;1.13;;;9.70;99.90;;;;;;5037341;28;20033;-75
2022/09/25 01:38:44;;;;;;;3.05;1.50;;;9.00;99.90;;;;;;5020922;28;20045;-76
2022/09/25 01:41:41;;;;;;;2.30;1.30;;;9.00;99.90;;;;;;5037538;28;20044;-76
2022/09/25 01:44:22;;;;;;;2.97;1.38;;;8.90;99.90;;;;;;5000709;28;20140;-75
2022/09/25 01:46:51;;;;;;;1.30;1.08;;;8.90;99.90;;;;;;5020696;28;20041;-75
2022/09/25 01:49:41;;;;;;;0.90;0.80;;;8.90;99.90;;;;;;5037029;28;20037;-75
2022/09/25 01:52:12;;;;;;;0.70;0.60;;;8.80;99.90;;;;;;5020529;28;20095;-75
2022/09/25 01:54:43;;;;;;;2.53;1.27;;;10.00;99.90;;;;;;5037014;28;20036;-75
2022/09/25 01:57:35;;;;;;;1.13;0.90;;;8.80;99.90;;;;;;5036861;28;20041;-75
2022/09/25 02:00:07;;;;;;;1.55;0.85;;;8.80;99.90;;;;;;5036945;28;20076;-75
2022/09/25 02:02:43;;;;;;;5.85;1.00;;;8.80;99.90;;;;;;5020433;28;20037;-75
2022/09/25 02:05:20;;;;;;;4.22;1.17;;;8.80;99.90;;;;;;5020285;28;20033;-75
2022/09/25 02:07:59;;;;;;;4.68;1.10;;;8.80;99.90;;;;;;5036803;28;20037;-76
2022/09/25 02:10:56;;;;;;;4.40;1.23;;;8.80;99.90;;;;;;5036591;28;20036;-75
2022/09/25 02:13:26;;;;;;;1.80;1.10;;;8.80;99.90;;;;;;5035527;28;20041;-76
2022/09/25 02:16:04;;;;;;;1.30;1.00;;;9.00;99.90;;;;;;5036596;28;20076;-76
2022/09/25 02:21:27;;;;;;;1.55;0.70;;;8.70;99.90;;;;;;5022391;28;20045;-75
2022/09/25 02:24:14;;;;;;;1.35;0.95;;;8.70;99.90;;;;;;5045017;28;20055;-75
2022/09/25 02:26:41;;;;;;;1.17;0.77;;;8.80;99.90;;;;;;5055900;28;20052;-75
2022/09/25 02:29:07;;;;;;;1.50;0.85;;;8.70;99.90;;;;;;5023228;28;20075;-75
2022/09/25 02:31:56;;;;;;;3.50;0.75;;;8.70;99.90;;;;;;5056123;28;20049;-75
2022/09/25 02:34:22;;;;;;;2.70;0.93;;;8.70;99.90;;;;;;5038886;28;20047;-75
2022/09/25 02:36:48;;;;;;;1.95;1.00;;;8.90;99.90;;;;;;5039497;28;20131;-75
2022/09/25 02:39:17;;;;;;;0.95;0.73;;;8.70;99.90;;;;;;5056076;28;20032;-76
2022/09/25 02:42:05;;;;;;;2.28;1.10;;;8.70;99.90;;;;;;5039371;28;20415;-76
2022/09/25 02:45:04;;;;;;;3.38;1.38;;;8.70;99.90;;;;;;5039371;28;20040;-76
2022/09/25 02:47:49;;;;;;;1.52;0.95;;;8.70;99.90;;;;;;5055941;28;20048;-76
2022/09/25 02:50:29;;;;;;;2.20;0.98;;;8.60;99.90;;;;;;5039176;28;20056;-76
2022/09/25 02:53:33;;;;;;;1.42;0.93;;;8.60;99.90;;;;;;5039513;28;20044;-76
2022/09/25 02:56:04;;;;;;;2.03;1.00;;;8.60;99.90;;;;;;5027695;28;20131;-75
2022/09/25 02:58:41;;;;;;;3.78;1.20;;;8.50;99.90;;;;;;5056117;28;20083;-75
2022/09/25 03:01:11;;;;;;;3.08;1.02;;;8.50;99.90;;;;;;5039365;28;20051;-75
2022/09/25 03:03:38;;;;;;;1.40;0.85;;;8.50;99.90;;;;;;5055963;28;20040;-75
2022/09/25 03:06:06;;;;;;;2.08;0.93;;;8.40;99.90;;;;;;5055602;28;20054;-75
2022/09/25 03:08:37;;;;;;;1.73;0.95;;;8.50;99.90;;;;;;5039037;28;20048;-75
2022/09/25 03:11:08;;;;;;;2.03;1.10;;;8.40;99.90;;;;;;5038911;28;20049;-75
2022/09/25 03:13:35;;;;;;;1.23;0.88;;;8.40;99.90;;;;;;5038980;28;20037;-75
2022/09/25 03:16:29;;;;;;;1.45;0.80;;;8.40;99.90;;;;;;5055493;28;20040;-75
2022/09/25 03:18:55;;;;;;;2.35;0.90;;;8.40;99.90;;;;;;5019799;28;20057;-75
2022/09/25 03:21:20;;;;;;;5.03;0.90;;;9.30;99.90;;;;;;5038803;28;20458;-75
2022/09/25 03:23:46;;;;;;;2.17;1.30;;;8.30;99.90;;;;;;5055073;28;20140;-75
2022/09/25 03:26:12;;;;;;;1.23;0.82;;;9.10;99.90;;;;;;5055313;28;20048;-75
2022/09/25 03:28:38;;;;;;;2.05;0.95;;;8.30;99.90;;;;;;5038728;28;20044;-75
2022/09/25 03:31:06;;;;;;;5.05;1.38;;;8.10;99.90;;;;;;5055192;28;20094;-75
2022/09/25 03:33:37;;;;;;;2.85;1.40;;;8.30;99.90;;;;;;5022241;28;20071;-75
2022/09/25 03:36:13;;;;;;;1.73;0.93;;;8.20;99.90;;;;;;5022315;28;20072;-75
2022/09/25 03:38:40;;;;;;;2.45;0.77;;;8.30;99.90;;;;;;5054951;28;20040;-75
2022/09/25 03:41:07;;;;;;;1.40;0.80;;;8.30;99.90;;;;;;5055436;28;20134;-75
2022/09/25 03:43:38;;;;;;;1.25;0.90;;;7.80;99.90;;;;;;5038838;28;20102;-75
2022/09/25 03:46:05;;;;;;;1.15;0.70;;;9.00;99.90;;;;;;5055304;28;20044;-75
2022/09/25 03:48:31;;;;;;;2.17;1.00;;;8.30;99.90;;;;;;5038829;28;20048;-75
2022/09/25 03:50:57;;;;;;;4.68;0.93;;;8.30;99.90;;;;;;5038467;28;20041;-75
2022/09/25 03:53:24;;;;;;;5.47;1.10;;;8.50;99.90;;;;;;5038495;28;20173;-75
2022/09/25 03:55:51;;;;;;;1.10;0.88;;;8.30;99.90;;;;;;5038777;28;20444;-75
2022/09/25 03:58:17;;;;;;;3.97;0.65;;;8.30;99.90;;;;;;5055178;28;20496;-75
2022/09/25 04:00:44;;;;;;;0.80;0.75;;;8.50;99.90;;;;;;5054947;28;20052;-75
2022/09/25 04:03:11;;;;;;;8.07;1.23;;;8.70;99.90;;;;;;5055196;28;20049;-75
2022/09/25 04:05:37;;;;;;;3.53;0.98;;;8.30;99.90;;;;;;5055206;28;20511;-75
2022/09/25 04:08:03;;;;;;;4.30;0.65;;;8.30;99.90;;;;;;5055205;28;20041;-75
2022/09/25 04:10:30;;;;;;;1.52;0.68;;;8.30;99.90;;;;;;5054812;28;20047;-75
2022/09/25 04:12:56;;;;;;;2.05;0.80;;;8.30;99.90;;;;;;5054895;28;20094;-76
2022/09/25 04:15:22;;;;;;;1.15;0.77;;;8.30;99.90;;;;;;5021821;28;20028;-75
2022/09/25 04:17:48;;;;;;;2.05;0.70;;;8.30;99.90;;;;;;5038520;28;20039;-75
2022/09/25 04:20:14;;;;;;;2.35;0.82;;;8.30;99.90;;;;;;5054772;28;20033;-75
2022/09/25 04:22:40;;;;;;;1.60;0.82;;;8.30;99.90;;;;;;5054835;28;20060;-75
2022/09/25 04:25:06;;;;;;;2.97;0.80;;;8.30;99.90;;;;;;5038026;28;20054;-75
2022/09/25 04:27:32;;;;;;;1.20;0.80;;;8.30;99.90;;;;;;5022182;28;20045;-75
2022/09/25 04:29:58;;;;;;;2.50;1.02;;;8.30;99.90;;;;;;5038199;28;20128;-75
2022/09/25 04:35:08;;;;;;;4.95;0.88;;;8.20;99.90;;;;;;5040657;28;20059;-75
2022/09/25 04:37:34;;;;;;;1.45;0.70;;;8.50;99.90;;;;;;5038409;28;20495;-75
2022/09/25 04:40:00;;;;;;;0.98;0.60;;;8.40;99.90;;;;;;5038662;28;20045;-75
2022/09/25 04:42:26;;;;;;;3.65;1.02;;;8.30;99.90;;;;;;5054909;28;20041;-75
2022/09/25 04:44:53;;;;;;;1.58;1.00;;;8.20;99.90;;;;;;5038293;28;20185;-75
2022/09/25 04:47:20;;;;;;;6.40;1.10;;;8.50;99.90;;;;;;5054786;28;20537;-75
2022/09/25 04:49:46;;;;;;;3.17;1.20;;;8.80;99.90;;;;;;5054591;28;20078;-76
2022/09/25 04:52:14;;;;;;;0.57;0.50;;;8.10;99.90;;;;;;5057564;28;20488;-75
2022/09/25 04:54:41;;;;;;;1.85;0.75;;;8.40;99.90;;;;;;5058406;28;20036;-75
2022/09/25 04:57:07;;;;;;;1.33;0.73;;;8.10;99.90;;;;;;5025238;28;20047;-75
2022/09/25 04:59:33;;;;;;;3.80;0.80;;;8.50;99.90;;;;;;5041489;28;20036;-75
2022/09/25 05:01:59;;;;;;;2.08;0.85;;;8.20;99.90;;;;;;5041350;28;20067;-75
2022/09/25 05:04:24;;;;;;;1.15;0.80;;;8.20;99.90;;;;;;5041567;28;20407;-75
2022/09/25 05:06:50;;;;;;;1.08;0.68;;;8.20;99.90;;;;;;5041352;28;20040;-75
2022/09/25 05:09:16;;;;;;;3.95;0.98;;;8.70;99.90;;;;;;5058071;28;20037;-75
2022/09/25 05:11:42;;;;;;;1.77;0.80;;;8.30;99.90;;;;;;5057731;28;20048;-75
2022/09/25 05:14:08;;;;;;;1.52;0.82;;;8.10;99.90;;;;;;5041426;28;20482;-75
2022/09/25 05:16:33;;;;;;;1.90;0.82;;;8.30;99.90;;;;;;5041500;28;20044;-75
2022/09/25 05:18:59;;;;;;;1.67;0.70;;;8.20;99.90;;;;;;5041386;28;20064;-75
2022/09/25 05:21:25;;;;;;;0.82;0.70;;;8.20;99.90;;;;;;5057598;28;20078;-75
2022/09/25 05:23:50;;;;;;;1.17;0.98;;;8.90;99.90;;;;;;5057600;28;20523;-75
2022/09/25 05:26:16;;;;;;;1.70;0.77;;;8.40;99.90;;;;;;5040911;28;20053;-75
2022/09/25 05:28:42;;;;;;;2.88;0.80;;;8.20;99.90;;;;;;5057719;28;20043;-75
2022/09/25 05:31:08;;;;;;;3.92;1.00;;;8.30;99.90;;;;;;5057418;28;20040;-75
2022/09/25 05:33:34;;;;;;;1.88;0.98;;;8.40;99.90;;;;;;5057667;28;20036;-76
2022/09/25 05:36:04;;;;;;;3.22;0.80;;;8.10;99.90;;;;;;5040942;28;20051;-75
2022/09/25 05:38:35;;;;;;;0.63;0.63;;;8.20;99.90;;;;;;5057285;28;20051;-75
2022/09/25 05:41:03;;;;;;;5.93;0.85;;;8.20;99.90;;;;;;5040689;28;20064;-75
2022/09/25 05:43:30;;;;;;;2.05;1.05;;;8.10;99.90;;;;;;5057165;28;20170;-75
2022/09/25 05:45:56;;;;;;;0.88;0.60;;;8.40;99.90;;;;;;5057182;28;20056;-75
2022/09/25 05:48:23;;;;;;;1.40;1.02;;;9.20;99.90;;;;;;5057096;28;20055;-75
2022/09/25 05:50:56;;;;;;;1.55;1.02;;;8.30;99.90;;;;;;5056902;28;20102;-75
2022/09/25 05:53:22;;;;;;;1.50;0.88;;;8.40;99.90;;;;;;5056998;28;20041;-75
2022/09/25 05:55:56;;;;;;;2.47;0.77;;;8.50;99.90;;;;;;5056976;28;20040;-75
2022/09/25 05:58:23;;;;;;;1.05;0.73;;;7.80;99.90;;;;;;5040306;28;20063;-75
2022/09/25 06:00:49;;;;;;;1.60;0.95;;;8.40;99.90;;;;;;5057122;28;20041;-75
2022/09/25 06:03:15;;;;;;;1.80;0.90;;;8.70;99.90;;;;;;5040361;28;20056;-75
2022/09/25 06:05:41;;;;;;;0.80;0.70;;;8.40;99.90;;;;;;5056990;28;20386;-75
2022/09/25 06:08:07;;;;;;;5.15;0.98;;;8.30;99.90;;;;;;5056693;28;20047;-75
2022/09/25 06:10:34;;;;;;;7.05;1.15;;;8.40;99.90;;;;;;5040276;28;20032;-75
2022/09/25 06:13:03;;;;;;;1.30;0.60;;;8.50;99.90;;;;;;5023462;28;20043;-75
2022/09/25 06:15:35;;;;;;;2.22;1.00;;;8.40;99.90;;;;;;5056690;28;20040;-75
2022/09/25 06:18:01;;;;;;;5.32;1.15;;;8.50;99.90;;;;;;5056756;28;20069;-75
2022/09/25 06:20:27;;;;;;;1.58;1.00;;;8.60;99.90;;;;;;5023302;28;20127;-75
2022/09/25 06:22:53;;;;;;;4.45;1.02;;;8.80;99.90;;;;;;5056469;28;20044;-75
2022/09/25 06:25:24;;;;;;;2.50;0.80;;;8.90;99.90;;;;;;5039655;28;20067;-75
2022/09/25 06:27:54;;;;;;;4.63;0.88;;;8.50;99.90;;;;;;5056297;28;20044;-75
2022/09/25 06:30:29;;;;;;;1.00;0.50;;;8.80;99.90;;;;;;5056203;28;20052;-75
2022/09/25 06:32:59;;;;;;;0.93;0.65;;;8.80;99.90;;;;;;5056776;28;20063;-75
2022/09/25 06:35:25;;;;;;;4.40;0.90;;;8.70;99.90;;;;;;5056379;28;20495;-75
2022/09/25 06:37:55;;;;;;;4.28;0.77;;;9.30;99.90;;;;;;5056320;28;20037;-75
2022/09/25 06:40:20;;;;;;;2.38;1.08;;;9.10;99.90;;;;;;5039954;28;20109;-75
2022/09/25 06:42:46;;;;;;;1.77;0.88;;;9.30;99.90;;;;;;5039244;28;20033;-75
2022/09/25 06:45:12;;;;;;;2.60;1.20;;;9.10;99.90;;;;;;5006512;28;20389;-75
2022/09/25 06:47:37;;;;;;;3.40;1.08;;;9.30;99.90;;;;;;5055913;28;20043;-75
2022/09/25 06:50:03;;;;;;;2.75;0.80;;;9.20;99.90;;;;;;5039275;28;20041;-78
2022/09/25 06:52:29;;;;;;;4.10;1.00;;;9.30;99.90;;;;;;5039318;28;20423;-78
2022/09/25 06:54:55;;;;;;;1.27;0.90;;;9.40;99.90;;;;;;5056001;28;20044;-78
2022/09/25 06:57:20;;;;;;;2.83;1.20;;;9.50;99.90;;;;;;5055557;28;20127;-78
2022/09/25 06:59:46;;;;;;;2.17;0.98;;;9.50;99.90;;;;;;5039333;28;20055;-78
2022/09/25 07:04:58;;;;;;;0.50;0.50;;;;;;;;;;5041666;28;20083;-76
2022/09/25 07:07:24;;;;;;;3.40;1.25;;;9.90;99.90;;;;;;5038804;28;20052;-77
2022/09/25 07:09:50;;;;;;;1.65;0.90;;;10.00;99.90;;;;;;5038867;28;20093;-77
2022/09/25 07:12:20;;;;;;;1.17;0.90;;;10.10;99.90;;;;;;5055259;28;20404;-77
2022/09/25 07:14:46;;;;;;;2.60;0.88;;;10.20;99.90;;;;;;5055036;28;20081;-78
2022/09/25 07:17:13;;;;;;;0.68;0.60;;;10.30;99.90;;;;;;5038791;28;20040;-77
2022/09/25 07:19:39;;;;;;;5.13;0.88;;;10.40;99.90;;;;;;5055619;28;20033;-77
2022/09/25 07:22:04;;;;;;;3.25;0.77;;;10.50;99.90;;;;;;5055379;28;20423;-77
2022/09/25 07:24:31;;;;;;;4.45;0.77;;;10.50;99.90;;;;;;5055070;28;20060;-77
2022/09/25 07:26:57;;;;;;;1.42;1.08;;;10.60;99.90;;;;;;5038882;28;20051;-77
2022/09/25 07:29:23;;;;;;;2.97;0.82;;;10.60;99.90;;;;;;5055274;28;20123;-77
2022/09/25 07:31:49;;;;;;;0.95;0.70;;;10.70;99.90;;;;;;5038495;28;20094;-77
2022/09/25 07:34:15;;;;;;;1.77;0.90;;;10.70;99.90;;;;;;5038598;28;20036;-75
2022/09/25 07:36:41;;;;;;;4.78;0.80;;;10.70;99.90;;;;;;5038628;28;20094;-74
2022/09/25 07:39:07;;;;;;;2.17;0.80;;;11.00;99.90;;;;;;5022177;28;20041;-74
2022/09/25 07:41:33;;;;;;;2.08;0.93;;;11.00;99.90;;;;;;5055113;28;20384;-75
2022/09/25 07:43:59;;;;;;;3.53;0.90;;;11.40;99.90;;;;;;5055105;28;20080;-75
2022/09/25 07:46:27;;;;;;;1.20;0.82;;;11.10;99.90;;;;;;5054983;28;20056;-75
2022/09/25 07:48:53;;;;;;;5.05;1.02;;;11.10;99.90;;;;;;5054990;28;20040;-75
2022/09/25 07:51:22;;;;;;;0.77;0.60;;;11.40;99.90;;;;;;5038272;28;20045;-75
2022/09/25 07:53:48;;;;;;;1.67;0.80;;;11.40;99.90;;;;;;5054905;28;20068;-74
2022/09/25 07:56:15;;;;;;;2.13;0.65;;;11.40;99.90;;;;;;5038624;28;20071;-74
2022/09/25 07:58:41;;;;;;;2.72;0.68;;;11.80;99.90;;;;;;5054900;28;20040;-74
2022/09/25 08:01:11;;;;;;;1.15;0.60;;;12.00;99.90;;;;;;5055146;28;20158;-74
2022/09/25 08:03:36;;;;;;;1.13;0.68;;;11.70;99.90;;;;;;5054919;28;20048;-74
2022/09/25 08:06:12;;;;;;;1.15;0.57;;;11.80;99.90;;;;;;5021847;28;20132;-74
2022/09/25 08:08:39;;;;;;;1.00;0.65;;;11.90;99.90;;;;;;5055092;28;20103;-74
2022/09/25 08:11:11;;;;;;;2.53;0.70;;;12.00;99.90;;;;;;5054718;28;20055;-74
2022/09/25 08:13:38;;;;;;;1.58;0.75;;;12.20;99.90;;;;;;5054710;28;20041;-74
2022/09/25 08:16:10;;;;;;;2.72;0.68;;;12.30;99.90;;;;;;5038468;28;20033;-74
2022/09/25 08:18:37;;;;;;;1.27;0.75;;;12.50;99.90;;;;;;5054772;28;20048;-74
2022/09/25 08:21:04;;;;;;;0.50;0.50;;;12.60;99.90;;;;;;5054971;28;20494;-74
2022/09/25 08:23:30;;;;;;;4.70;0.63;;;12.70;99.90;;;;;;5055077;28;20045;-74
2022/09/25 08:25:56;;;;;;;0.60;0.43;;;12.80;99.90;;;;;;5039929;28;20098;-74
2022/09/25 08:28:22;;;;;;;0.65;0.40;;;13.00;99.90;;;;;;5041941;28;20044;-74
2022/09/25 08:30:48;;;;;;;0.47;0.43;;;13.10;99.90;;;;;;5041827;28;20045;-74
2022/09/25 08:33:14;;;;;;;1.75;0.68;;;13.20;99.90;;;;;;5058677;28;20123;-74
2022/09/25 08:35:41;;;;;;;6.07;1.02;;;13.30;99.90;;;;;;5058496;28;20132;-74
2022/09/25 08:38:07;;;;;;;1.35;0.77;;;13.40;99.90;;;;;;5058529;28;20032;-74
2022/09/25 08:40:39;;;;;;;1.40;0.35;;;13.40;99.90;;;;;;5041755;28;20036;-74
2022/09/25 08:43:05;;;;;;;4.65;0.70;;;13.50;99.90;;;;;;5041965;28;20051;-74
2022/09/25 08:51:16;;;;;;;0.85;0.57;;;13.80;99.90;;;;;;5058139;28;20451;-74
2022/09/25 08:53:44;;;;;;;1.17;0.40;;;13.80;99.90;;;;;;5058120;28;20131;-74
2022/09/25 08:56:19;;;;;;;1.75;0.40;;;13.90;99.90;;;;;;5058304;28;20051;-74
2022/09/25 08:58:49;;;;;;;2.88;0.80;;;13.80;99.90;;;;;;5057937;28;20417;-74
2022/09/25 09:01:23;;;;;;;0.52;0.50;;;13.90;99.90;;;;;;5058009;28;20055;-75
2022/09/25 09:04:09;;;;;;;1.85;0.40;;;13.90;99.90;;;;;;5041391;28;20047;-73
2022/09/25 09:06:37;;;;;;;5.72;0.65;;;14.00;99.90;;;;;;5058196;28;20500;-77
2022/09/25 09:09:14;;;;;;;3.88;0.50;;;14.00;99.90;;;;;;5057850;28;20040;-75
2022/09/25 09:11:56;;;;;;;0.30;0.30;;;14.40;99.90;;;;;;5057834;28;20111;-76
2022/09/25 09:14:27;;;;;;;0.32;0.30;;;14.20;99.90;;;;;;5041353;28;20036;-80
2022/09/25 09:17:04;;;;;;;1.65;0.68;;;14.30;99.90;;;;;;5058086;28;20484;-75
2022/09/25 09:19:30;;;;;;;0.38;0.38;;;14.30;99.90;;;;;;5057846;28;20033;-76
2022/09/25 09:22:29;;;;;;;0.57;0.30;;;14.30;99.90;;;;;;5024470;28;20094;-75
2022/09/25 09:25:17;;;;;;;1.08;0.40;;;14.30;99.90;;;;;;5042707;28;20081;-75
2022/09/25 09:28:06;;;;;;;1.52;0.35;;;14.50;99.90;;;;;;5057590;28;20046;-75
2022/09/25 09:30:54;;;;;;;0.68;0.50;;;14.50;99.90;;;;;;5040700;28;20047;-75
2022/09/25 09:33:33;;;;;;;2.72;0.52;;;14.50;99.90;;;;;;5057385;28;20076;-75
2022/09/25 09:36:06;;;;;;;1.23;0.52;;;;;;;;;;5040639;28;20075;-75
2022/09/25 09:38:56;;;;;;;1.52;0.40;;;;;;;;;;5057368;28;20047;-77
2022/09/25 09:41:43;;;;;;;1.95;0.40;;;14.90;99.90;;;;;;5057122;28;20074;-74
2022/09/25 09:44:22;;;;;;;0.75;0.30;;;14.90;99.90;;;;;;5040607;28;20041;-78
2022/09/25 09:47:02;;;;;;;0.88;0.30;;;;;;;;;;5040936;28;20045;-80
2022/09/25 09:49:28;;;;;;;0.88;0.40;;;;;;;;;;5040433;28;20047;-73
2022/09/25 09:52:09;;;;;;;0.75;0.40;;;14.20;99.90;;;;;;5057039;28;20047;-74
2022/09/25 09:54:59;;;;;;;0.65;0.30;;;13.90;99.90;;;;;;5057828;28;20044;-76
2022/09/25 09:57:36;;;;;;;0.35;0.20;;;13.60;99.90;;;;;;5057200;28;20048;-75
2022/09/25 10:00:12;;;;;;;0.20;0.20;;;13.40;99.90;;;;;;5056993;28;20059;-81
2022/09/25 10:02:58;;;;;;;4.22;0.35;;;13.20;99.90;;;;;;5057136;28;20041;-78
2022/09/25 10:05:29;;;;;;;1.42;0.25;;;13.20;99.90;;;;;;5056718;28;20166;-77
2022/09/25 10:07:54;;;;;;;;;;;13.30;99.90;;;;;;5075010;28;20036;-74
2022/09/25 10:10:27;;;;;;;0.25;0.25;;;13.10;99.90;;;;;;5056482;28;20003;-74
2022/09/25 10:12:53;;;;;;;0.47;0.32;;;13.00;99.90;;;;;;5056637;28;20041;-75
2022/09/25 10:15:30;;;;;;;0.98;0.20;;;13.10;99.90;;;;;;5056683;28;20391;-74
2022/09/25 10:17:58;;;;;;;0.93;0.40;;;13.20;99.90;;;;;;5056576;28;20050;-77
2022/09/25 10:20:29;;;;;;;5.55;0.60;;;13.30;99.90;;;;;;5039781;28;20044;-74
2022/09/25 10:22:57;;;;;;;0.30;0.30;;;13.40;99.90;;;;;;5056729;28;20037;-81
2022/09/25 10:25:37;;;;;;;0.68;0.45;;;13.50;99.90;;;;;;5056674;28;20110;-77
2022/09/25 10:28:35;;;;;;;0.10;0.10;;;13.60;99.90;;;;;;5040022;28;20123;-78
2022/09/25 10:31:04;;;;;;;0.30;0.30;;;13.60;99.90;;;;;;5056333;28;20045;-77
2022/09/25 10:33:32;;;;;;;0.30;0.30;;;13.70;99.90;;;;;;5056571;28;20043;-77
2022/09/25 10:35:58;;;;;;;0.20;0.20;;;13.70;99.90;;;;;;5056426;28;20127;-77
2022/09/25 10:38:32;;;;;;;1.23;0.40;;;13.60;99.90;;;;;;5023485;28;20396;-74
2022/09/25 10:41:05;;;;;;;1.77;0.43;;;13.60;99.90;;;;;;5056113;28;20048;-74
2022/09/25 10:43:31;;;;;;;1.25;0.40;;;13.60;99.90;;;;;;5039738;28;20047;-75
2022/09/25 10:46:06;;;;;;;0.22;0.22;;;13.60;99.90;;;;;;5056096;28;20048;-75
2022/09/25 10:51:22;;;;;;;1.05;0.40;;;13.70;99.90;;;;;;5055659;28;20101;-78
2022/09/25 10:54:08;;;;;;;1.77;0.40;;;13.70;99.90;;;;;;5055857;28;20071;-79
2022/09/25 10:56:37;;;;;;;0.25;0.25;;;13.80;99.90;;;;;;5055824;28;20060;-74
2022/09/25 10:59:28;;;;;;;0.30;0.30;;;13.90;99.90;;;;;;5055841;28;20040;-73
2022/09/25 11:01:54;;;;;;;0.28;0.22;;;14.00;99.90;;;;;;5055350;28;20053;-73
2022/09/25 11:04:20;;;;;;;0.25;0.25;;;14.00;99.90;;;;;;5039603;28;20048;-73
2022/09/25 11:06:51;;;;;;;0.30;0.30;;;14.10;99.90;;;;;;5039108;28;20046;-73
2022/09/25 11:09:28;;;;;;;0.40;0.40;;;14.00;99.90;;;;;;5055603;28;20079;-73
2022/09/25 11:12:06;;;;;;;0.90;0.35;;;14.10;99.90;;;;;;5055565;28;20041;-73
2022/09/25 11:14:34;;;;;;;0.60;0.40;;;;;;;;;;5038898;28;20044;-72
2022/09/25 11:17:05;;;;;;;0.77;0.30;;;14.20;99.90;;;;;;5055492;28;20068;-73
2022/09/25 11:19:37;;;;;;;0.57;0.30;;;14.30;99.90;;;;;;5055477;28;20086;-77
2022/09/25 11:22:32;;;;;;;0.20;0.20;;;14.30;98.10;;;;;;5038921;28;20076;-78
2022/09/25 11:25:14;;;;;;;0.30;0.30;;;14.50;99.90;;;;;;5038648;28;20056;-79
2022/09/25 11:28:09;;;;;;;0.40;0.40;;;14.60;99.90;;;;;;5055366;28;20044;-78
2022/09/25 11:30:44;;;;;;;0.68;0.38;;;14.60;99.90;;;;;;5018677;28;20103;-74
2022/09/25 11:33:36;;;;;;;1.55;0.30;;;14.70;99.90;;;;;;5055247;28;20066;-74
2022/09/25 11:36:04;;;;;;;0.63;0.43;;;14.80;99.50;;;;;;5055473;28;20115;-73
2022/09/25 11:41:50;;;;;;;5.63;0.40;;;14.90;99.90;;;;;;5055068;28;20060;-73
2022/09/25 11:44:19;;;;;;;0.25;0.20;;;15.00;98.30;;;;;;5038538;28;20048;-73
2022/09/25 11:47:17;;;;;;;1.05;0.45;;;14.90;99.00;;;;;;5055077;28;20044;-73
2022/09/25 11:49:48;;;;;;;2.75;0.52;;;15.10;99.40;;;;;;5038530;28;20082;-73
2022/09/25 11:52:27;;;;;;;;;;;15.30;99.90;;;;;;5038783;28;20131;-73
2022/09/25 11:55:25;;;;;;;0.73;0.50;;;15.00;99.90;;;;;;5038418;28;19966;-72
2022/09/25 11:58:13;;;;;;;1.90;1.42;;;15.00;99.90;;;;;;5054938;28;20037;-74
2022/09/25 12:00:52;;;;;;;2.78;1.90;;;;;;;;;;5041490;28;20110;-72
2022/09/25 12:03:46;;;;;;;6.63;3.67;;;15.30;99.90;;;;;;5042709;28;20105;-72
2022/09/25 12:06:27;;;;;;;13.20;5.20;;;;;;;;;;5042460;28;20076;-72
2022/09/25 12:09:06;;;;;;;0.60;0.45;;;15.80;99.40;;;;;;5042473;28;20044;-71
2022/09/25 12:11:44;;;;;;;9.15;2.35;;;16.00;97.80;;;;;;5042243;28;20123;-73
2022/09/25 12:14:30;;;;;;;2.50;0.93;;;16.20;97.00;;;;;;5059224;28;20123;-73
2022/09/25 12:17:27;;;;;;;0.82;0.52;;;16.50;95.80;;;;;;5058795;28;20032;-72
2022/09/25 12:20:20;;;;;;;2.72;1.35;;;16.50;91.10;;;;;;5042237;28;20044;-73
2022/09/25 12:23:13;;;;;;;0.47;0.35;;;16.40;90.70;;;;;;5058752;28;20032;-73
2022/09/25 12:26:08;;;;;;;0.40;0.30;;;16.20;90.00;;;;;;5041992;28;20118;-73
2022/09/25 12:29:12;;;;;;;0.65;0.47;;;15.90;82.40;;;;;;5058888;28;20127;-72
2022/09/25 12:32:20;;;;;;;0.85;0.40;;;15.60;90.20;;;;;;4962741;28;20042;-73
2022/09/25 12:34:54;;;;;;;0.32;0.25;;;15.40;93.60;;;;;;4962729;28;20181;-74
2022/09/25 12:37:23;;;;;;;0.40;0.40;;;15.00;96.60;;;;;;5043457;28;20055;-75
2022/09/25 12:39:56;;;;;;;1.42;0.80;;;14.80;97.70;;;;;;5058304;28;20036;-75
2022/09/25 12:42:40;;;;;;;1.38;0.60;;;14.50;98.10;;;;;;5041658;28;20051;-75
2022/09/25 12:45:48;;;;;;;0.77;0.55;;;14.30;99.70;;;;;;5058556;28;20122;-76
2022/09/25 12:48:54;;;;;;;0.77;0.52;;;14.10;99.90;;;;;;5040667;28;20044;-76
2022/09/25 12:51:23;;;;;;;1.00;0.43;;;13.90;99.90;;;;;;5057857;28;20040;-75
2022/09/25 12:53:50;;;;;;;0.90;0.60;;;13.70;99.90;;;;;;5058100;28;20058;-74
2022/09/25 12:56:24;;;;;;;0.68;0.40;;;13.60;99.90;;;;;;5058273;28;20086;-75
2022/09/25 12:59:12;;;;;;;0.70;0.40;;;13.50;99.90;;;;;;5041704;28;20037;-75
2022/09/25 13:01:54;;;;;;;1.13;1.00;;;13.40;99.90;;;;;;5041301;28;20083;-74
2022/09/25 13:13:52;;;;;;;0.70;0.60;;;13.50;99.90;;;;;;5076742;22;20044;-70
2022/09/25 13:16:18;;;;;;;0.43;0.43;;;13.70;99.90;;;;;;5057489;28;20048;-70
2022/09/25 13:19:07;;;;;;;1.85;0.60;;;13.80;99.90;;;;;;5057403;28;20059;-69
2022/09/25 13:21:44;;;;;;;1.80;0.52;;;13.90;99.90;;;;;;5057406;28;20097;-69
2022/09/25 13:24:17;;;;;;;1.58;0.65;;;13.90;99.90;;;;;;5057061;28;20041;-68
2022/09/25 13:26:52;;;;;;;0.93;0.60;;;14.00;99.90;;;;;;5074868;28;20161;-70
2022/09/25 13:29:37;;;;;;;2.88;1.35;;;14.00;99.90;;;;;;5075028;28;20048;-70
2022/09/25 13:32:05;;;;;;;2.13;0.77;;;14.00;99.90;;;;;;5075163;28;20491;-70
2022/09/25 13:34:38;;;;;;;0.93;0.52;;;14.00;99.90;;;;;;5074936;28;20040;-70
2022/09/25 13:37:07;;;;;;;0.38;0.30;;;14.00;99.90;;;;;;5057222;28;20055;-70
2022/09/25 13:42:28;;;;;;;0.95;0.50;;;14.20;99.90;;;;;;5075173;28;20048;-70
2022/09/25 13:45:04;;;;;;;1.52;0.35;;;14.30;99.90;;;;;;5056794;28;20045;-69
2022/09/25 13:47:31;;;;;;;0.50;0.40;;;;;;;;;;5074776;28;20054;-70
2022/09/25 13:50:12;;;;;;;0.73;0.60;;;;;;;;;;5075070;28;20109;-70
2022/09/25 13:52:38;;;;;;;0.52;0.40;;;14.70;99.90;;;;;;5056608;28;20040;-70
2022/09/25 13:55:19;;;;;;;1.13;0.32;;;14.60;99.90;;;;;;5074789;28;20535;-70